createdAt,value
2023-03-08T00:02:10.951Z,57.24
2023-03-08T00:05:19.376Z,57.80
2023-03-08T00:08:27.636Z,57.03
2023-03-08T00:11:37.194Z,57.02
2023-03-08T00:14:45.310Z,56.85
2023-03-08T00:17:53.492Z,57.52
2023-03-08T00:21:03.051Z,56.55
2023-03-08T00:24:12.474Z,56.38
2023-03-08T00:27:21.982Z,57.61
2023-03-08T00:30:30.192Z,56.84
2023-03-08T00:33:38.495Z,56.42
2023-03-08T00:36:47.375Z,56.68
2023-03-08T00:39:58.926Z,56.71
2023-03-08T00:43:09.107Z,57.00
2023-03-08T00:46:17.519Z,57.08
2023-03-08T00:49:27.326Z,56.05
2023-03-08T00:52:35.584Z,55.57
2023-03-08T00:55:50.861Z,55.12
2023-03-08T00:59:00.846Z,55.91
2023-03-08T01:02:09.304Z,55.96
2023-03-08T01:05:17.721Z,56.02
2023-03-08T01:08:27.659Z,55.67
2023-03-08T01:11:36.661Z,56.02
2023-03-08T01:14:46.185Z,56.73
2023-03-08T01:17:55.104Z,56.77
2023-03-08T01:21:05.693Z,56.75
2023-03-08T01:24:14.200Z,56.55
2023-03-08T01:27:22.381Z,56.59
2023-03-08T01:30:32.057Z,57.31
2023-03-08T01:33:43.345Z,58.13
2023-03-08T01:36:51.453Z,57.75
2023-03-08T01:39:59.875Z,59.34
2023-03-08T01:43:24.441Z,59.54
2023-03-08T01:46:36.240Z,59.25
2023-03-08T01:50:01.547Z,59.84
2023-03-08T01:53:10.018Z,59.98
2023-03-08T01:56:20.740Z,60.50
2023-03-08T01:59:33.089Z,60.52
2023-03-08T02:02:49.303Z,61.53
2023-03-08T02:05:58.947Z,61.41
2023-03-08T02:09:08.105Z,60.98
2023-03-08T02:12:17.013Z,60.72
2023-03-08T02:15:26.797Z,61.26
2023-03-08T02:18:52.144Z,62.69
2023-03-08T02:22:00.688Z,63.30
2023-03-08T02:25:16.028Z,62.23
2023-03-08T02:28:27.066Z,62.77
2023-03-08T02:31:35.406Z,63.16
2023-03-08T02:34:46.389Z,62.91
2023-03-08T02:37:54.624Z,63.22
2023-03-08T02:41:04.475Z,64.13
2023-03-08T02:44:12.627Z,63.52
2023-03-08T02:47:21.067Z,63.30
2023-03-08T02:50:29.470Z,63.94
2023-03-08T02:53:37.864Z,63.56
2023-03-08T02:56:47.653Z,62.97
2023-03-08T02:59:56.313Z,63.78
2023-03-08T03:03:05.480Z,64.62
2023-03-08T03:06:18.011Z,65.24
2023-03-08T03:09:29.486Z,65.25
2023-03-08T03:12:39.995Z,65.00
2023-03-08T03:15:52.080Z,65.16
2023-03-08T03:19:00.636Z,64.65
2023-03-08T03:22:08.978Z,65.12
2023-03-08T03:25:17.650Z,64.83
2023-03-08T03:28:28.984Z,65.13
2023-03-08T03:31:37.785Z,64.66
2023-03-08T03:34:46.820Z,65.29
2023-03-08T03:37:57.222Z,65.55
2023-03-08T03:41:07.936Z,66.51
2023-03-08T03:44:18.731Z,66.42
2023-03-08T03:47:30.949Z,66.82
2023-03-08T03:50:42.643Z,66.63
2023-03-08T03:53:54.853Z,67.28
2023-03-08T03:57:03.266Z,66.78
2023-03-08T04:00:22.180Z,67.54
2023-03-08T04:03:40.321Z,67.34
2023-03-08T04:06:49.920Z,68.09
2023-03-08T04:10:01.808Z,68.17
2023-03-08T04:13:13.420Z,68.13
2023-03-08T04:16:29.083Z,68.82
2023-03-08T04:19:39.402Z,69.08
2023-03-08T04:22:49.245Z,69.25
2023-03-08T04:26:05.699Z,68.76
2023-03-08T04:29:15.541Z,68.48
2023-03-08T04:32:25.658Z,68.62
2023-03-08T04:35:38.084Z,69.81
2023-03-08T04:38:48.475Z,70.18
2023-03-08T04:41:57.596Z,70.31
2023-03-08T04:45:11.283Z,71.14
2023-03-08T04:48:23.809Z,69.43
2023-03-08T04:51:34.088Z,70.17
2023-03-08T04:54:45.876Z,68.50
2023-03-08T04:58:01.836Z,68.49
2023-03-08T05:01:15.430Z,68.74
2023-03-08T05:04:25.854Z,68.06
2023-03-08T05:07:34.443Z,68.24
2023-03-08T05:10:49.784Z,68.23
2023-03-08T05:14:00.727Z,68.30
2023-03-08T05:17:10.399Z,68.16
2023-03-08T05:20:20.454Z,68.50
2023-03-08T05:23:30.342Z,68.21
2023-03-08T05:26:42.302Z,68.76
2023-03-08T05:29:53.206Z,69.18
2023-03-08T05:33:01.646Z,68.49
2023-03-08T05:36:14.324Z,68.94
2023-03-08T05:39:24.700Z,69.25
2023-03-08T05:42:44.407Z,69.56
2023-03-08T05:45:59.212Z,69.35
2023-03-08T05:49:09.458Z,69.28
2023-03-08T05:52:19.785Z,69.39
2023-03-08T05:55:28.314Z,69.10
2023-03-08T05:58:38.471Z,68.59
2023-03-08T06:01:47.174Z,68.64
2023-03-08T06:05:13.612Z,68.76
2023-03-08T06:08:24.795Z,68.41
2023-03-08T06:11:33.125Z,68.39
2023-03-08T06:14:42.717Z,68.72
2023-03-08T06:17:54.713Z,67.94
2023-03-08T06:21:09.014Z,67.64
2023-03-08T06:24:20.791Z,67.37
2023-03-08T06:27:29.242Z,67.29
2023-03-08T06:30:40.612Z,67.48
2023-03-08T06:33:49.285Z,66.94
2023-03-08T06:37:02.792Z,66.71
2023-03-08T06:40:14.368Z,66.63
2023-03-08T06:43:23.427Z,65.26
2023-03-08T06:46:32.139Z,63.66
2023-03-08T06:49:40.856Z,63.70
2023-03-08T06:52:49.191Z,63.19
2023-03-08T06:56:03.869Z,63.18
2023-03-08T06:59:15.270Z,63.24
2023-03-08T07:02:23.618Z,62.87
2023-03-08T07:05:32.380Z,62.67
2023-03-08T07:08:40.816Z,62.24
2023-03-08T07:11:50.744Z,62.00
2023-03-08T07:14:58.943Z,62.16
2023-03-08T07:18:07.244Z,61.69
2023-03-08T07:21:26.097Z,61.36
2023-03-08T07:24:34.210Z,61.37
2023-03-08T07:27:44.446Z,61.00
2023-03-08T07:30:54.483Z,61.27
2023-03-08T07:34:02.751Z,60.80
2023-03-08T07:37:13.445Z,60.79
2023-03-08T07:40:21.850Z,60.19
2023-03-08T07:43:31.392Z,60.12
2023-03-08T07:46:41.349Z,59.45
2023-03-08T07:49:49.550Z,59.14
2023-03-08T07:52:57.669Z,59.29
2023-03-08T07:56:06.947Z,58.84
2023-03-08T07:59:16.493Z,57.99
2023-03-08T08:02:24.702Z,57.66
2023-03-08T08:05:32.984Z,56.29
2023-03-08T08:08:41.372Z,54.91
2023-03-08T08:11:49.792Z,53.90
2023-03-08T08:14:59.894Z,52.57
2023-03-08T08:18:11.662Z,52.60
2023-03-08T08:21:21.591Z,51.79
2023-03-08T08:24:30.944Z,51.16
2023-03-08T08:27:39.288Z,50.55
2023-03-08T08:30:58.315Z,50.29
2023-03-08T08:34:06.519Z,50.02
2023-03-08T08:37:14.719Z,49.34
2023-03-08T08:40:22.922Z,50.70
2023-03-08T08:43:32.075Z,50.98
2023-03-08T08:46:41.734Z,51.74
2023-03-08T08:49:50.107Z,51.98
2023-03-08T08:52:59.271Z,52.95
2023-03-08T08:56:26.252Z,53.37
2023-03-08T08:59:36.442Z,53.24
2023-03-08T09:02:46.008Z,53.72
2023-03-08T09:05:54.196Z,53.49
2023-03-08T09:09:02.652Z,53.15
2023-03-08T09:12:11.015Z,52.77
2023-03-08T09:15:19.508Z,52.85
2023-03-08T09:18:29.578Z,52.26
2023-03-08T09:21:38.043Z,52.20
2023-03-08T09:24:46.742Z,52.89
2023-03-08T09:27:55.217Z,52.16
2023-03-08T09:31:12.135Z,52.55
2023-03-08T09:34:21.706Z,51.31
2023-03-08T09:37:30.055Z,51.27
2023-03-08T09:40:50.309Z,50.77
2023-03-08T09:44:17.410Z,50.96
2023-03-08T09:47:40.629Z,49.57
2023-03-08T09:50:53.265Z,48.64
2023-03-08T09:54:08.087Z,48.08
2023-03-08T09:57:23.250Z,48.48
2023-03-08T10:00:34.421Z,48.48
2023-03-08T10:04:16.708Z,48.02
2023-03-08T10:07:39.868Z,49.08
2023-03-08T10:11:00.212Z,47.97
2023-03-08T10:14:19.886Z,47.14
2023-03-08T10:17:43.205Z,45.95
2023-03-08T10:20:51.735Z,45.19
2023-03-08T10:24:16.405Z,43.75
2023-03-08T10:27:28.317Z,45.16
2023-03-08T10:30:41.079Z,46.22
2023-03-08T10:33:58.423Z,47.09
2023-03-08T10:37:08.685Z,48.53
2023-03-08T10:40:22.822Z,49.61
2023-03-08T10:43:37.242Z,48.93
2023-03-08T10:46:51.164Z,48.75
2023-03-08T10:50:15.382Z,49.44
2023-03-08T10:53:24.426Z,48.69
2023-03-08T10:56:44.676Z,48.55
2023-03-08T10:59:53.204Z,48.16
2023-03-08T11:03:17.026Z,53.38
2023-03-08T11:06:26.687Z,53.01
2023-03-08T11:09:36.914Z,56.43
2023-03-08T11:12:47.209Z,55.09
2023-03-08T11:16:16.655Z,59.04
2023-03-08T11:19:41.037Z,58.03
2023-03-08T11:23:07.839Z,56.91
2023-03-08T11:26:24.664Z,57.40
2023-03-08T11:29:51.485Z,58.17
2023-03-08T11:33:49.108Z,58.25
2023-03-08T11:37:06.969Z,56.92
2023-03-08T11:40:29.408Z,57.25
2023-03-08T11:44:09.679Z,57.02
2023-03-08T11:47:55.495Z,57.14
2023-03-08T11:51:15.254Z,59.50
2023-03-08T11:54:42.559Z,59.91
2023-03-08T11:57:57.289Z,59.41
2023-03-08T12:01:13.033Z,59.96
2023-03-08T12:04:33.462Z,60.13
2023-03-08T12:07:48.102Z,60.55
2023-03-08T12:11:01.909Z,60.28
2023-03-08T12:14:19.437Z,61.36
2023-03-08T12:17:36.256Z,62.62
2023-03-08T12:20:47.406Z,63.23
2023-03-08T12:24:15.488Z,63.02
2023-03-08T12:27:33.590Z,62.84
2023-03-08T12:31:00.640Z,62.66
2023-03-08T12:34:26.026Z,62.02
2023-03-08T12:37:35.610Z,62.15
2023-03-08T12:40:47.165Z,62.54
2023-03-08T12:44:05.264Z,63.29
2023-03-08T12:47:24.061Z,62.46
2023-03-08T12:50:38.124Z,61.51
2023-03-08T12:54:00.308Z,61.34
2023-03-08T12:57:23.053Z,62.38
2023-03-08T13:00:34.347Z,61.61
2023-03-08T13:03:43.789Z,61.31
2023-03-08T13:07:16.310Z,60.82
2023-03-08T13:10:33.349Z,59.11
2023-03-08T13:13:52.384Z,60.10
2023-03-08T13:17:00.778Z,60.09
2023-03-08T13:20:20.894Z,60.25
2023-03-08T13:23:38.169Z,59.39
2023-03-08T13:27:20.359Z,60.08
2023-03-08T13:30:34.503Z,59.24
2023-03-08T13:33:46.418Z,60.06
2023-03-08T13:36:54.919Z,61.27
2023-03-08T13:40:07.806Z,61.28
2023-03-08T13:43:18.453Z,60.97
2023-03-08T13:46:26.748Z,60.69
2023-03-08T13:49:41.992Z,59.33
2023-03-08T13:52:50.561Z,60.08
2023-03-08T13:56:01.879Z,58.84
2023-03-08T13:59:20.831Z,58.67
2023-03-08T14:02:31.935Z,58.43
2023-03-08T14:05:45.744Z,58.72
2023-03-08T14:08:54.464Z,58.55
2023-03-08T14:12:06.834Z,58.61
2023-03-08T14:15:20.588Z,57.28
2023-03-08T14:18:34.825Z,58.13
2023-03-08T14:21:51.619Z,57.56
2023-03-08T14:25:05.092Z,58.48
2023-03-08T14:28:38.417Z,58.45
2023-03-08T14:32:02.587Z,58.19
2023-03-08T14:35:25.102Z,58.96
2023-03-08T14:38:35.577Z,58.69
2023-03-08T14:41:43.787Z,58.09
2023-03-08T14:44:54.453Z,59.09
2023-03-08T14:48:22.626Z,58.72
2023-03-08T14:51:40.498Z,57.53
2023-03-08T14:54:48.702Z,56.85
2023-03-08T14:58:02.213Z,57.30
2023-03-08T15:01:10.487Z,55.63
2023-03-08T15:04:22.992Z,54.91
2023-03-08T15:07:37.041Z,55.27
2023-03-08T15:10:46.392Z,54.79
2023-03-08T15:13:54.483Z,54.71
2023-03-08T15:17:02.637Z,55.92
2023-03-08T15:20:15.507Z,55.78
2023-03-08T15:23:27.868Z,57.17
2023-03-08T15:26:36.190Z,56.14
2023-03-08T15:29:44.330Z,56.68
2023-03-08T15:32:52.784Z,56.55
2023-03-08T15:36:02.411Z,56.33
2023-03-08T15:39:13.235Z,56.51
2023-03-08T15:42:21.352Z,55.99
2023-03-08T15:45:29.619Z,56.78
2023-03-08T15:48:37.778Z,57.21
2023-03-08T15:51:47.295Z,56.62
2023-03-08T15:54:55.720Z,56.60
2023-03-08T15:58:04.325Z,57.04
2023-03-08T16:01:12.660Z,56.26
2023-03-08T16:04:21.083Z,56.30
2023-03-08T16:07:30.670Z,56.82
2023-03-08T16:10:41.866Z,56.49
2023-03-08T16:13:52.516Z,56.57
2023-03-08T16:17:00.808Z,57.00
2023-03-08T16:20:10.920Z,57.31
2023-03-08T16:23:20.436Z,57.15
2023-03-08T16:26:28.822Z,57.36
2023-03-08T16:29:37.536Z,57.30
2023-03-08T16:32:45.898Z,58.31
2023-03-08T16:35:54.829Z,57.67
2023-03-08T16:39:05.645Z,57.90
2023-03-08T16:42:14.687Z,58.32
2023-03-08T16:45:22.960Z,58.24
2023-03-08T16:48:31.426Z,59.22
2023-03-08T16:51:39.939Z,59.97
2023-03-08T16:54:49.492Z,59.96
2023-03-08T16:57:57.903Z,60.06
2023-03-08T17:01:12.360Z,60.78
2023-03-08T17:04:22.702Z,59.93
2023-03-08T17:07:30.862Z,59.97
2023-03-08T17:10:41.655Z,60.16
2023-03-08T17:13:51.814Z,60.21
2023-03-08T17:17:00.124Z,60.11
2023-03-08T17:20:10.414Z,60.10
2023-03-08T17:23:19.677Z,61.06
2023-03-08T17:26:29.191Z,61.90
2023-03-08T17:29:37.788Z,62.00
2023-03-08T17:32:46.325Z,61.34
2023-03-08T17:35:55.021Z,62.04
2023-03-08T17:39:04.091Z,61.66
2023-03-08T17:42:13.585Z,61.91
2023-03-08T17:45:21.974Z,61.17
2023-03-08T17:48:30.814Z,61.58
2023-03-08T17:51:39.066Z,61.12
2023-03-08T17:54:49.486Z,61.72
2023-03-08T17:57:59.372Z,61.22
2023-03-08T18:01:13.139Z,61.35
2023-03-08T18:04:22.061Z,61.63
2023-03-08T18:07:30.247Z,62.34
2023-03-08T18:10:38.658Z,63.80
2023-03-08T18:13:48.731Z,64.31
2023-03-08T18:16:56.928Z,64.44
2023-03-08T18:20:07.522Z,64.10
2023-03-08T18:23:15.749Z,64.33
2023-03-08T18:26:24.662Z,63.52
2023-03-08T18:29:37.151Z,63.77
2023-03-08T18:32:46.331Z,64.16
2023-03-08T18:35:58.819Z,63.64
2023-03-08T18:39:09.013Z,63.76
2023-03-08T18:42:17.148Z,63.99
2023-03-08T18:45:26.766Z,63.26
2023-03-08T18:48:34.922Z,62.02
2023-03-08T18:51:44.554Z,62.87
2023-03-08T18:54:52.809Z,63.01
2023-03-08T18:58:00.931Z,62.33
2023-03-08T19:01:15.264Z,61.00
2023-03-08T19:04:23.480Z,61.75
2023-03-08T19:07:32.645Z,62.35
2023-03-08T19:10:42.545Z,63.69
2023-03-08T19:13:58.252Z,64.43
2023-03-08T19:17:09.111Z,64.99
2023-03-08T19:20:22.622Z,67.71
2023-03-08T19:23:30.957Z,68.82
2023-03-08T19:26:42.918Z,70.62
2023-03-08T19:29:53.479Z,71.96
2023-03-08T19:33:07.726Z,73.93
2023-03-08T19:36:17.365Z,73.72
2023-03-08T19:39:30.479Z,75.29
2023-03-08T19:42:41.625Z,75.92
2023-03-08T19:45:52.918Z,77.44
2023-03-08T19:49:04.658Z,77.75
2023-03-08T19:52:16.176Z,78.59
2023-03-08T19:55:24.783Z,79.04
2023-03-08T19:58:33.144Z,80.09
2023-03-08T20:01:41.847Z,80.06
2023-03-08T20:04:51.496Z,81.40
2023-03-08T20:07:59.926Z,81.78
2023-03-08T20:11:08.424Z,82.20
2023-03-08T20:14:16.632Z,82.86
2023-03-08T20:17:25.312Z,83.07
2023-03-08T20:20:34.871Z,83.54
2023-03-08T20:23:43.317Z,84.06
2023-03-08T20:26:52.531Z,84.40
2023-03-08T20:30:01.074Z,84.29
2023-03-08T20:33:11.541Z,84.31
2023-03-08T20:36:25.055Z,84.78
2023-03-08T20:39:34.046Z,85.26
2023-03-08T20:42:42.483Z,84.98
2023-03-08T20:45:50.886Z,84.90
2023-03-08T20:48:59.205Z,85.07
2023-03-08T20:52:09.213Z,84.85
2023-03-08T20:55:17.928Z,84.25
2023-03-08T20:58:27.421Z,84.29
2023-03-08T21:01:35.648Z,83.73
2023-03-08T21:04:44.033Z,84.13
2023-03-08T21:07:54.145Z,85.02
2023-03-08T21:11:02.488Z,85.57
2023-03-08T21:14:12.504Z,85.76
2023-03-08T21:17:22.123Z,86.10
2023-03-08T21:20:30.350Z,86.31
2023-03-08T21:23:40.156Z,86.07
2023-03-08T21:26:48.302Z,87.72
2023-03-08T21:29:56.663Z,86.34
2023-03-08T21:33:04.859Z,85.88
2023-03-08T21:36:13.596Z,85.91
2023-03-08T21:39:26.521Z,85.69
2023-03-08T21:42:34.981Z,86.16
2023-03-08T21:45:43.604Z,86.22
2023-03-08T21:48:51.897Z,86.01
2023-03-08T21:52:00.946Z,86.59
2023-03-08T21:55:11.517Z,85.93
2023-03-08T21:58:19.632Z,86.20
2023-03-08T22:01:30.146Z,85.12
2023-03-08T22:04:41.858Z,84.68
2023-03-08T22:07:53.406Z,85.32
2023-03-08T22:11:08.106Z,85.72
2023-03-08T22:14:19.487Z,86.09
2023-03-08T22:17:30.671Z,85.29
2023-03-08T22:20:40.062Z,85.05
2023-03-08T22:23:56.377Z,84.98
2023-03-08T22:27:11.337Z,84.08
2023-03-08T22:30:23.510Z,83.89
2023-03-08T22:33:33.351Z,84.78
2023-03-08T22:36:44.270Z,84.77
2023-03-08T22:40:00.687Z,84.95
2023-03-08T22:43:16.272Z,84.68
2023-03-08T22:46:27.844Z,83.56
2023-03-08T22:49:36.278Z,82.62
2023-03-08T22:52:44.570Z,83.20
2023-03-08T22:55:52.860Z,82.05
2023-03-08T22:59:04.029Z,83.01
2023-03-08T23:02:12.500Z,82.62
2023-03-08T23:05:22.103Z,82.09
2023-03-08T23:08:30.269Z,81.93
2023-03-08T23:11:39.165Z,81.53
2023-03-08T23:14:48.749Z,82.36
2023-03-08T23:17:56.947Z,81.81
2023-03-08T23:21:06.348Z,81.91
2023-03-08T23:24:15.704Z,82.58
2023-03-08T23:27:24.272Z,82.53
2023-03-08T23:30:34.941Z,83.00
2023-03-08T23:33:44.322Z,83.33
2023-03-08T23:36:53.180Z,83.60
2023-03-08T23:40:01.963Z,83.20
2023-03-08T23:43:10.685Z,82.66
2023-03-08T23:46:21.669Z,82.82
2023-03-08T23:49:29.881Z,82.96
2023-03-08T23:52:38.479Z,82.79
2023-03-08T23:55:46.988Z,82.53
2023-03-08T23:58:57.006Z,82.37
